createdAt,value
2022-11-04T00:00:46.062Z,10.84
2022-11-04T00:03:14.478Z,10.79
2022-11-04T00:05:41.401Z,10.85
2022-11-04T00:08:26.772Z,10.86
2022-11-04T00:11:16.346Z,10.85
2022-11-04T00:13:44.248Z,10.87
2022-11-04T00:16:30.081Z,10.91
2022-11-04T00:18:56.827Z,10.89
2022-11-04T00:21:42.580Z,10.88
2022-11-04T00:24:50.215Z,10.87
2022-11-04T00:27:38.580Z,10.93
2022-11-04T00:30:08.567Z,10.90
2022-11-04T00:32:54.422Z,10.81
2022-11-04T00:35:21.831Z,10.83
2022-11-04T00:37:48.609Z,10.79
2022-11-04T00:40:40.587Z,10.86
2022-11-04T00:43:07.863Z,10.84
2022-11-04T00:45:35.014Z,10.90
2022-11-04T00:48:01.873Z,10.97
2022-11-04T00:50:29.253Z,10.92
2022-11-04T00:53:03.424Z,10.90
2022-11-04T00:55:30.210Z,10.98
2022-11-04T00:57:58.534Z,10.87
2022-11-04T01:00:29.689Z,10.89
2022-11-04T01:02:56.997Z,10.97
2022-11-04T01:05:23.876Z,10.97
2022-11-04T01:07:50.603Z,11.02
2022-11-04T01:10:17.327Z,11.06
2022-11-04T01:12:45.474Z,11.01
2022-11-04T01:15:12.933Z,11.01
2022-11-04T01:17:39.807Z,11.04
2022-11-04T01:20:07.010Z,11.11
2022-11-04T01:22:35.261Z,11.16
2022-11-04T01:25:02.027Z,10.96
2022-11-04T01:27:28.752Z,10.92
2022-11-04T01:29:55.508Z,10.88
2022-11-04T01:32:22.183Z,10.92
2022-11-04T01:34:48.964Z,10.92
2022-11-04T01:37:15.723Z,10.96
2022-11-04T01:39:43.184Z,10.92
2022-11-04T01:42:13.465Z,10.84
2022-11-04T01:44:49.683Z,10.95
2022-11-04T01:47:18.497Z,10.80
2022-11-04T01:49:49.957Z,10.82
2022-11-04T01:52:22.943Z,10.87
2022-11-04T01:54:53.375Z,10.86
2022-11-04T01:57:28.786Z,10.94
2022-11-04T02:00:00.413Z,10.89
2022-11-04T02:02:27.491Z,10.90
2022-11-04T02:04:54.482Z,10.83
2022-11-04T02:07:21.991Z,10.85
2022-11-04T02:09:50.195Z,10.78
2022-11-04T02:12:35.382Z,10.90
2022-11-04T02:15:03.638Z,10.74
2022-11-04T02:17:30.320Z,10.81
2022-11-04T02:20:14.802Z,10.84
2022-11-04T02:23:09.323Z,10.77
2022-11-04T02:26:13.971Z,10.78
2022-11-04T02:29:28.700Z,10.84
2022-11-04T02:32:26.284Z,10.90
2022-11-04T02:35:33.800Z,10.95
2022-11-04T02:38:13.206Z,10.81
2022-11-04T02:40:51.360Z,11.00
2022-11-04T02:43:45.078Z,10.98
2022-11-04T02:46:21.403Z,10.93
2022-11-04T02:48:54.036Z,11.01
2022-11-04T02:51:28.601Z,10.97
2022-11-04T02:54:16.563Z,10.90
2022-11-04T02:56:49.038Z,10.96
2022-11-04T02:59:27.354Z,10.92
2022-11-04T03:01:56.478Z,10.91
2022-11-04T03:04:29.437Z,10.94
2022-11-04T03:06:59.743Z,10.95
2022-11-04T03:09:29.571Z,11.00
2022-11-04T03:12:04.464Z,10.93
2022-11-04T03:14:41.539Z,10.87
2022-11-04T03:17:18.348Z,10.87
2022-11-04T03:19:54.668Z,10.87
2022-11-04T03:22:24.157Z,10.93
2022-11-04T03:24:51.872Z,10.97
2022-11-04T03:27:39.103Z,11.00
2022-11-04T03:30:12.593Z,10.92
2022-11-04T03:32:50.781Z,10.95
2022-11-04T03:35:18.202Z,10.93
2022-11-04T03:37:47.661Z,10.93
2022-11-04T03:40:16.111Z,10.90
2022-11-04T03:42:52.856Z,10.91
2022-11-04T03:45:19.654Z,10.99
2022-11-04T03:48:12.564Z,10.94
2022-11-04T03:50:44.943Z,10.98
2022-11-04T03:53:14.255Z,11.02
2022-11-04T03:55:59.910Z,11.11
2022-11-04T03:58:35.694Z,11.00
2022-11-04T04:01:43.715Z,11.12
2022-11-04T04:04:20.423Z,10.98
2022-11-04T04:06:53.750Z,11.09
2022-11-04T04:09:51.866Z,11.01
2022-11-04T04:12:35.536Z,11.12
2022-11-04T04:15:07.177Z,11.13
2022-11-04T04:17:48.342Z,11.04
2022-11-04T04:20:20.598Z,11.00
2022-11-04T04:22:53.477Z,11.05
2022-11-04T04:25:42.392Z,10.98
2022-11-04T04:28:13.689Z,11.12
2022-11-04T04:30:42.473Z,11.18
2022-11-04T04:33:13.764Z,11.09
2022-11-04T04:35:44.741Z,11.17
2022-11-04T04:38:40.834Z,11.11
2022-11-04T04:41:32.769Z,11.13
2022-11-04T04:44:18.003Z,11.22
2022-11-04T04:46:50.591Z,11.03
2022-11-04T04:49:20.932Z,11.11
2022-11-04T04:51:48.197Z,11.18
2022-11-04T04:54:15.440Z,11.21
2022-11-04T04:56:42.232Z,11.17
2022-11-04T04:59:09.666Z,11.24
2022-11-04T05:02:01.297Z,11.21
2022-11-04T05:04:30.126Z,11.21
2022-11-04T05:06:56.919Z,11.19
2022-11-04T05:09:28.347Z,11.28
2022-11-04T05:11:59.246Z,11.30
2022-11-04T05:14:26.024Z,11.30
2022-11-04T05:16:56.326Z,11.27
2022-11-04T05:19:23.018Z,11.25
2022-11-04T05:21:51.619Z,11.26
2022-11-04T05:24:18.510Z,11.44
2022-11-04T05:26:48.708Z,11.43
2022-11-04T05:29:16.143Z,11.32
2022-11-04T05:31:42.928Z,11.32
2022-11-04T05:34:15.473Z,11.32
2022-11-04T05:36:45.852Z,11.39
2022-11-04T05:39:14.161Z,11.40
2022-11-04T05:41:41.058Z,11.40
2022-11-04T05:44:09.685Z,11.44
2022-11-04T05:46:36.950Z,11.45
2022-11-04T05:49:03.924Z,11.32
2022-11-04T05:51:30.857Z,11.40
2022-11-04T05:53:58.052Z,11.36
2022-11-04T05:56:24.856Z,11.21
2022-11-04T05:58:51.524Z,11.25
2022-11-04T06:01:32.045Z,11.15
2022-11-04T06:04:00.527Z,11.11
2022-11-04T06:06:30.374Z,11.08
2022-11-04T06:08:58.585Z,11.13
2022-11-04T06:11:27.162Z,11.12
2022-11-04T06:13:55.115Z,11.04
2022-11-04T06:16:22.462Z,10.98
2022-11-04T06:18:49.375Z,11.14
2022-11-04T06:21:18.354Z,11.18
2022-11-04T06:23:45.203Z,11.03
2022-11-04T06:26:13.618Z,11.10
2022-11-04T06:28:40.820Z,11.17
2022-11-04T06:31:10.390Z,11.09
2022-11-04T06:33:37.442Z,11.05
2022-11-04T06:36:06.754Z,11.17
2022-11-04T06:38:36.201Z,11.23
2022-11-04T06:43:31.829Z,11.09
2022-11-04T06:46:03.798Z,11.11
2022-11-04T06:48:31.421Z,11.10
2022-11-04T06:50:59.954Z,11.12
2022-11-04T06:53:28.223Z,11.18
2022-11-04T06:56:02.196Z,11.20
2022-11-04T06:58:28.967Z,11.11
2022-11-04T07:00:58.897Z,11.19
2022-11-04T07:03:25.717Z,11.13
2022-11-04T07:05:52.525Z,11.20
2022-11-04T07:08:19.623Z,11.07
2022-11-04T07:10:46.348Z,11.14
2022-11-04T07:13:13.362Z,11.09
2022-11-04T07:15:40.373Z,11.19
2022-11-04T07:18:07.490Z,11.19
2022-11-04T07:20:36.478Z,11.21
2022-11-04T07:23:03.344Z,11.35
2022-11-04T07:25:30.395Z,11.22
2022-11-04T07:28:01.123Z,11.34
2022-11-04T07:30:29.605Z,11.26
2022-11-04T07:33:21.769Z,11.36
2022-11-04T07:38:50.319Z,11.44
2022-11-04T07:41:18.161Z,11.38
2022-11-04T07:43:54.271Z,11.45
2022-11-04T07:46:21.652Z,11.36
2022-11-04T07:48:48.582Z,11.40
2022-11-04T07:51:18.934Z,11.60
2022-11-04T07:56:45.664Z,11.80
2022-11-04T07:59:12.688Z,11.76
2022-11-04T08:01:40.669Z,11.76
2022-11-04T08:04:11.632Z,11.65
2022-11-04T08:06:41.253Z,11.62
2022-11-04T08:09:10.377Z,11.58
2022-11-04T08:11:42.208Z,11.56
2022-11-04T08:14:14.153Z,11.52
2022-11-04T08:16:52.929Z,11.58
2022-11-04T08:19:23.485Z,11.53
2022-11-04T08:21:52.545Z,11.64
2022-11-04T08:24:23.539Z,11.59
2022-11-04T08:26:54.182Z,11.56
2022-11-04T08:29:23.528Z,11.61
2022-11-04T08:31:51.524Z,11.62
2022-11-04T08:34:20.204Z,11.75
2022-11-04T08:36:48.418Z,11.71
2022-11-04T08:39:19.026Z,11.77
2022-11-04T08:41:48.038Z,11.80
2022-11-04T08:44:18.839Z,11.75
2022-11-04T08:46:53.261Z,11.82
2022-11-04T08:49:27.577Z,11.86
2022-11-04T08:52:06.380Z,11.87
2022-11-04T08:54:38.956Z,11.85
2022-11-04T08:57:12.721Z,11.91
2022-11-04T08:59:50.017Z,11.96
2022-11-04T09:19:52.754Z,11.96
2022-11-04T10:52:03.300Z,12.52
2022-11-04T12:31:39.448Z,11.56
2022-11-04T12:34:19.583Z,11.45
2022-11-04T12:37:19.819Z,11.37
2022-11-04T13:16:25.779Z,11.93
2022-11-04T13:19:39.899Z,11.97
2022-11-04T13:22:25.481Z,12.08
2022-11-04T13:31:16.477Z,12.07
2022-11-04T13:41:08.963Z,11.88
2022-11-04T13:44:01.344Z,11.83
2022-11-04T13:46:37.148Z,11.77
2022-11-04T13:49:47.494Z,11.81
2022-11-04T13:52:17.968Z,11.77
2022-11-04T13:57:58.792Z,11.64
2022-11-04T14:13:10.824Z,11.50
2022-11-04T14:16:53.075Z,11.43
2022-11-04T14:32:03.852Z,11.47
2022-11-04T14:34:39.224Z,11.41
2022-11-04T14:37:28.140Z,11.36
2022-11-04T14:48:37.214Z,11.14
2022-11-04T14:51:05.986Z,11.19
2022-11-04T14:53:37.354Z,11.15
2022-11-04T14:56:23.044Z,11.12
2022-11-04T14:59:03.489Z,11.12
2022-11-04T15:01:35.548Z,11.06
2022-11-04T15:04:28.445Z,10.94
2022-11-04T15:07:04.767Z,10.91
2022-11-04T15:09:37.404Z,10.87
2022-11-04T15:12:35.574Z,10.80
2022-11-04T15:15:02.911Z,10.75
2022-11-04T15:17:34.407Z,10.74
2022-11-04T15:20:05.130Z,10.66
2022-11-04T15:22:32.269Z,10.65
2022-11-04T15:27:57.609Z,10.54
2022-11-04T15:30:31.396Z,10.55
2022-11-04T15:33:25.576Z,10.45
2022-11-04T15:35:53.176Z,10.43
2022-11-04T15:38:21.004Z,10.44
2022-11-04T15:40:50.936Z,10.45
2022-11-04T15:43:19.267Z,10.46
2022-11-04T15:45:56.215Z,10.43
2022-11-04T15:48:28.203Z,10.36
2022-11-04T15:51:12.502Z,10.40
2022-11-04T15:53:55.042Z,10.37
2022-11-04T15:56:29.077Z,10.44
2022-11-04T15:58:58.295Z,10.49
2022-11-04T16:01:26.422Z,10.52
2022-11-04T16:04:01.497Z,10.47
2022-11-04T16:06:34.921Z,10.47
2022-11-04T16:09:17.686Z,10.37
2022-11-04T16:12:06.661Z,10.34
2022-11-04T16:14:34.042Z,10.28
2022-11-04T16:17:01.511Z,10.32
2022-11-04T16:20:08.733Z,10.31
2022-11-04T16:22:38.925Z,10.22
2022-11-04T16:25:12.695Z,10.21
2022-11-04T16:27:42.152Z,10.20
2022-11-04T16:30:23.968Z,10.17
2022-11-04T16:33:07.086Z,10.16
2022-11-04T16:35:40.117Z,10.13
2022-11-04T16:38:07.513Z,10.15
2022-11-04T16:40:36.451Z,10.23
2022-11-04T16:43:03.523Z,10.21
2022-11-04T16:45:36.234Z,10.16
2022-11-04T16:48:03.960Z,10.05
2022-11-04T16:50:32.686Z,9.98
2022-11-04T16:53:01.880Z,10.00
2022-11-04T16:55:30.108Z,10.02
2022-11-04T16:58:04.837Z,10.06
2022-11-04T17:00:35.751Z,9.99
2022-11-04T17:03:22.200Z,10.10
2022-11-04T17:05:51.423Z,10.11
2022-11-04T17:08:19.132Z,10.12
2022-11-04T17:10:51.986Z,10.03
2022-11-04T17:13:19.583Z,10.12
2022-11-04T17:15:48.534Z,9.91
2022-11-04T17:18:17.379Z,9.86
2022-11-04T17:20:55.878Z,9.71
2022-11-04T17:23:26.579Z,9.61
2022-11-04T17:25:54.698Z,9.54
2022-11-04T17:28:22.294Z,9.43
2022-11-04T17:30:51.351Z,9.41
2022-11-04T17:33:19.734Z,9.34
2022-11-04T17:35:49.711Z,9.33
2022-11-04T17:38:18.456Z,9.30
2022-11-04T17:41:04.817Z,9.46
2022-11-04T17:52:45.731Z,9.35
2022-11-04T17:55:16.920Z,9.34
2022-11-04T17:57:45.465Z,9.25
2022-11-04T18:00:14.647Z,9.16
2022-11-04T18:03:09.012Z,9.07
2022-11-04T18:05:37.717Z,8.98
2022-11-04T18:08:05.050Z,8.89
2022-11-04T18:10:32.295Z,8.86
2022-11-04T18:12:59.364Z,9.07
2022-11-04T18:15:26.379Z,8.99
2022-11-04T18:17:54.083Z,9.03
2022-11-04T18:20:22.405Z,8.90
2022-11-04T18:22:49.482Z,8.92
2022-11-04T18:25:17.723Z,8.91
2022-11-04T18:27:49.440Z,8.88
2022-11-04T18:30:23.783Z,8.83
2022-11-04T18:33:02.824Z,8.77
2022-11-04T18:35:33.586Z,8.73
2022-11-04T18:41:04.838Z,8.77
2022-11-04T18:43:44.273Z,8.71
2022-11-04T18:49:07.211Z,8.62
2022-11-04T18:51:37.482Z,8.63
2022-11-04T19:09:47.701Z,8.57
2022-11-04T19:16:12.371Z,8.57
2022-11-04T19:18:57.450Z,8.48
2022-11-04T19:21:42.229Z,8.44
2022-11-04T19:24:43.878Z,8.65
2022-11-04T19:30:20.514Z,8.43
2022-11-04T19:47:37.982Z,8.25
2022-11-04T19:50:12.182Z,8.15
2022-11-04T19:52:42.449Z,8.13
2022-11-04T19:55:14.373Z,8.04
2022-11-04T19:57:45.214Z,7.88
2022-11-04T20:00:19.093Z,7.92
2022-11-04T20:02:50.713Z,7.83
2022-11-04T20:05:24.448Z,7.84
2022-11-04T20:08:06.095Z,7.86
2022-11-04T20:10:41.606Z,7.79
2022-11-04T20:13:37.024Z,7.84
2022-11-04T20:16:34.665Z,7.89
2022-11-04T20:19:30.304Z,7.89
2022-11-04T20:21:59.135Z,7.94
2022-11-04T20:24:32.603Z,7.87
2022-11-04T20:27:06.016Z,7.83
2022-11-04T20:29:36.138Z,7.72
2022-11-04T20:32:06.667Z,7.58
2022-11-04T20:34:38.320Z,7.58
2022-11-04T20:37:08.346Z,7.35
2022-11-04T20:39:41.441Z,7.36
2022-11-04T20:42:12.852Z,7.30
2022-11-04T20:44:43.561Z,7.15
2022-11-04T20:47:19.739Z,7.07
2022-11-04T20:49:58.712Z,7.09
2022-11-04T20:52:39.079Z,7.01
2022-11-04T20:55:13.272Z,6.94
2022-11-04T20:57:54.050Z,6.92
2022-11-04T21:00:26.802Z,6.95
2022-11-04T21:03:03.561Z,6.64
2022-11-04T21:08:10.906Z,6.50
2022-11-04T21:10:45.984Z,6.55
2022-11-04T21:13:24.203Z,6.51
2022-11-04T21:16:08.083Z,6.51
2022-11-04T21:18:57.345Z,6.47
2022-11-04T21:21:29.204Z,6.25
2022-11-04T21:24:25.143Z,6.21
2022-11-04T21:26:57.391Z,6.25
2022-11-04T21:29:29.371Z,6.27
2022-11-04T21:32:06.750Z,6.19
2022-11-04T21:34:40.034Z,6.25
2022-11-04T21:37:16.499Z,6.17
2022-11-04T21:39:48.135Z,6.17
2022-11-04T21:42:35.158Z,6.18
2022-11-04T21:47:56.880Z,6.19
2022-11-04T21:50:28.804Z,6.21
2022-11-04T21:53:03.655Z,6.27
2022-11-04T22:04:33.207Z,6.26
2022-11-04T22:18:49.631Z,6.28
2022-11-04T22:27:09.986Z,6.32
2022-11-04T22:29:41.864Z,6.19
2022-11-04T22:32:17.763Z,6.22
2022-11-04T22:34:50.050Z,6.24
2022-11-04T22:40:36.058Z,6.20
2022-11-04T22:46:31.217Z,6.27
2022-11-04T22:49:11.260Z,6.17
2022-11-04T22:51:41.293Z,6.10
2022-11-04T22:54:11.996Z,6.15
2022-11-04T22:56:43.961Z,6.25
2022-11-04T22:59:13.414Z,6.45
2022-11-04T23:01:47.551Z,6.44
2022-11-04T23:04:21.313Z,6.18
2022-11-04T23:09:58.426Z,6.13
2022-11-04T23:13:03.342Z,6.14
2022-11-04T23:22:07.303Z,6.00
2022-11-04T23:24:57.113Z,6.00
2022-11-04T23:28:00.286Z,5.89
2022-11-04T23:30:45.168Z,5.76
2022-11-04T23:33:20.912Z,5.62
2022-11-04T23:36:12.206Z,5.29
2022-11-04T23:42:20.364Z,5.16
2022-11-04T23:48:25.733Z,4.99
2022-11-04T23:51:17.444Z,5.07
2022-11-04T23:54:05.923Z,5.07
2022-11-04T23:56:52.883Z,5.16
2022-11-04T23:59:40.402Z,5.02
